createdAt,value
2023-05-01T00:02:03.939Z,5.53
2023-05-01T00:04:32.961Z,5.17
2023-05-01T00:07:00.299Z,4.90
2023-05-01T00:09:31.920Z,5.27
2023-05-01T00:11:59.309Z,4.53
2023-05-01T00:14:26.686Z,5.03
2023-05-01T00:16:54.137Z,4.37
2023-05-01T00:19:21.653Z,3.90
2023-05-01T00:21:51.148Z,4.80
2023-05-01T00:24:18.513Z,4.30
2023-05-01T00:26:46.068Z,4.10
2023-05-01T00:29:13.506Z,3.90
2023-05-01T00:31:42.422Z,4.67
2023-05-01T00:34:11.165Z,3.90
2023-05-01T00:36:38.596Z,3.37
2023-05-01T00:39:07.629Z,4.27
2023-05-01T00:41:35.460Z,4.17
2023-05-01T00:44:03.093Z,4.73
2023-05-01T00:46:30.832Z,4.67
2023-05-01T00:48:58.484Z,4.07
2023-05-01T00:51:28.240Z,4.40
2023-05-01T00:53:56.260Z,4.73
2023-05-01T00:56:23.668Z,4.00
2023-05-01T00:58:54.268Z,3.50
2023-05-01T01:01:22.094Z,4.13
2023-05-01T01:03:51.582Z,3.40
2023-05-01T01:06:30.841Z,3.00
2023-05-01T01:09:04.352Z,3.53
2023-05-01T01:11:33.484Z,3.50
2023-05-01T01:14:03.491Z,3.50
2023-05-01T01:16:35.320Z,3.33
2023-05-01T01:19:04.181Z,3.37
2023-05-01T01:21:36.058Z,3.43
2023-05-01T01:24:10.788Z,3.13
2023-05-01T01:26:39.627Z,3.40
2023-05-01T01:29:25.339Z,3.50
2023-05-01T01:31:56.935Z,3.20
2023-05-01T01:34:28.587Z,3.20
2023-05-01T01:37:14.467Z,3.33
2023-05-01T01:39:46.015Z,3.40
2023-05-01T01:42:17.834Z,3.27
2023-05-01T01:44:49.778Z,3.50
2023-05-01T01:47:18.240Z,3.30
2023-05-01T01:49:47.493Z,3.10
2023-05-01T01:52:16.101Z,3.10
2023-05-01T01:54:44.945Z,3.10
2023-05-01T01:57:13.776Z,3.13
2023-05-01T01:59:42.008Z,3.20
2023-05-01T02:02:09.524Z,3.13
2023-05-01T02:04:37.087Z,3.50
2023-05-01T02:07:05.932Z,3.30
2023-05-01T02:09:34.868Z,3.33
2023-05-01T02:12:03.222Z,3.53
2023-05-01T02:14:31.060Z,3.73
2023-05-01T02:16:58.558Z,3.70
2023-05-01T02:19:26.537Z,3.40
2023-05-01T02:21:55.158Z,3.43
2023-05-01T02:24:23.981Z,3.20
2023-05-01T02:26:52.868Z,3.30
2023-05-01T02:29:20.264Z,3.60
2023-05-01T02:31:47.626Z,3.47
2023-05-01T02:34:15.012Z,3.30
2023-05-01T02:36:42.531Z,3.07
2023-05-01T02:39:10.014Z,3.70
2023-05-01T02:41:38.770Z,3.63
2023-05-01T02:44:08.318Z,3.57
2023-05-01T02:46:36.678Z,3.80
2023-05-01T02:49:04.574Z,3.40
2023-05-01T02:51:32.620Z,3.50
2023-05-01T02:54:00.181Z,3.30
2023-05-01T02:56:27.817Z,3.47
2023-05-01T02:58:55.199Z,3.60
2023-05-01T03:01:22.623Z,3.93
2023-05-01T03:03:50.010Z,3.50
2023-05-01T03:06:19.243Z,3.40
2023-05-01T03:08:47.671Z,3.10
2023-05-01T03:11:15.402Z,3.67
2023-05-01T03:13:43.459Z,4.07
2023-05-01T03:16:10.931Z,3.77
2023-05-01T03:18:38.266Z,3.13
2023-05-01T03:21:05.642Z,3.27
2023-05-01T03:23:32.936Z,3.70
2023-05-01T03:26:00.245Z,3.60
2023-05-01T03:28:27.630Z,3.50
2023-05-01T03:30:54.990Z,3.10
2023-05-01T03:33:22.444Z,3.47
2023-05-01T03:35:49.872Z,3.60
2023-05-01T03:38:17.224Z,3.77
2023-05-01T03:40:44.599Z,3.77
2023-05-01T03:43:11.911Z,3.87
2023-05-01T03:45:39.413Z,3.70
2023-05-01T03:48:06.991Z,3.70
2023-05-01T03:50:34.336Z,3.70
2023-05-01T03:53:01.641Z,3.20
2023-05-01T03:55:29.016Z,3.50
2023-05-01T03:57:56.453Z,3.27
2023-05-01T04:00:24.094Z,3.77
2023-05-01T04:02:52.306Z,3.53
2023-05-01T04:05:21.296Z,3.50
2023-05-01T04:07:48.612Z,3.80
2023-05-01T04:10:16.916Z,3.80
2023-05-01T04:12:44.300Z,3.33
2023-05-01T04:15:13.263Z,3.83
2023-05-01T04:17:41.003Z,4.07
2023-05-01T04:20:08.534Z,3.90
2023-05-01T04:22:35.935Z,4.00
2023-05-01T04:25:04.550Z,3.40
2023-05-01T04:27:31.917Z,3.50
2023-05-01T04:29:59.393Z,4.20
2023-05-01T04:32:27.182Z,3.73
2023-05-01T04:34:54.652Z,3.70
2023-05-01T04:37:22.019Z,3.93
2023-05-01T04:39:50.816Z,3.93
2023-05-01T04:42:18.211Z,4.10
2023-05-01T04:44:47.112Z,3.70
2023-05-01T04:47:14.506Z,4.03
2023-05-01T04:49:41.865Z,3.80
2023-05-01T04:52:09.273Z,3.73
2023-05-01T04:54:36.622Z,3.80
2023-05-01T04:57:03.992Z,3.80
2023-05-01T04:59:31.382Z,3.33
2023-05-01T05:01:58.806Z,3.70
2023-05-01T05:04:26.128Z,3.63
2023-05-01T05:06:53.538Z,4.40
2023-05-01T05:09:20.895Z,3.43
2023-05-01T05:11:48.284Z,4.63
2023-05-01T05:14:15.647Z,3.80
2023-05-01T05:16:43.025Z,3.40
2023-05-01T05:19:10.544Z,3.63
2023-05-01T05:21:37.915Z,3.70
2023-05-01T05:24:05.346Z,3.67
2023-05-01T05:26:32.744Z,4.47
2023-05-01T05:29:00.122Z,4.57
2023-05-01T05:31:27.623Z,3.80
2023-05-01T05:33:54.969Z,5.00
2023-05-01T05:36:22.366Z,4.10
2023-05-01T05:38:49.820Z,3.90
2023-05-01T05:41:17.539Z,3.80
2023-05-01T05:43:44.912Z,4.13
2023-05-01T05:46:12.327Z,3.97
2023-05-01T05:48:39.655Z,3.80
2023-05-01T05:51:06.980Z,4.07
2023-05-01T05:53:34.337Z,4.20
2023-05-01T05:56:01.811Z,4.33
2023-05-01T05:58:29.180Z,4.30
2023-05-01T06:00:56.553Z,5.07
2023-05-01T06:03:24.122Z,4.30
2023-05-01T06:05:51.638Z,4.20
2023-05-01T06:08:18.964Z,4.63
2023-05-01T06:10:46.462Z,4.73
2023-05-01T06:13:14.979Z,4.90
2023-05-01T06:15:43.564Z,4.57
2023-05-01T06:18:11.488Z,4.10
2023-05-01T06:20:38.922Z,3.90
2023-05-01T06:23:07.852Z,4.20
2023-05-01T06:25:35.246Z,4.70
2023-05-01T06:28:03.790Z,5.17
2023-05-01T06:30:31.228Z,4.53
2023-05-01T06:32:58.613Z,5.50
2023-05-01T06:35:26.030Z,6.00
2023-05-01T06:37:53.367Z,4.10
2023-05-01T06:40:21.256Z,5.20
2023-05-01T06:42:48.772Z,4.93
2023-05-01T06:45:16.097Z,4.80
2023-05-01T06:47:43.535Z,4.67
2023-05-01T06:50:11.117Z,4.67
2023-05-01T06:52:38.494Z,4.27
2023-05-01T06:55:05.930Z,5.20
2023-05-01T06:57:33.300Z,4.67
2023-05-01T07:00:00.677Z,5.97
2023-05-01T07:02:28.032Z,6.00
2023-05-01T07:04:55.547Z,4.10
2023-05-01T07:07:23.406Z,4.67
2023-05-01T07:09:50.763Z,4.50
2023-05-01T07:12:18.141Z,5.00
2023-05-01T07:14:45.515Z,4.40
2023-05-01T07:17:13.020Z,4.70
2023-05-01T07:19:40.377Z,4.37
2023-05-01T07:22:07.747Z,4.00
2023-05-01T07:24:35.057Z,4.27
2023-05-01T07:27:02.507Z,4.23
2023-05-01T07:29:29.891Z,4.23
2023-05-01T07:31:57.290Z,4.20
2023-05-01T07:34:24.644Z,4.67
2023-05-01T07:36:52.007Z,4.20
2023-05-01T07:39:19.462Z,4.33
2023-05-01T07:41:47.198Z,3.90
2023-05-01T07:44:14.652Z,3.60
2023-05-01T07:46:42.024Z,3.90
2023-05-01T07:49:09.586Z,3.60
2023-05-01T07:51:37.015Z,4.03
2023-05-01T07:54:04.682Z,3.50
2023-05-01T07:56:32.389Z,3.90
2023-05-01T07:58:59.780Z,4.00
2023-05-01T08:01:27.153Z,3.67
2023-05-01T08:03:54.660Z,3.80
2023-05-01T08:06:22.299Z,4.10
2023-05-01T08:08:49.779Z,3.70
2023-05-01T08:11:17.160Z,4.43
2023-05-01T08:13:44.553Z,5.20
2023-05-01T08:16:12.096Z,4.07
2023-05-01T08:18:39.481Z,3.93
2023-05-01T08:21:06.862Z,3.80
2023-05-01T08:23:34.232Z,3.70
2023-05-01T08:26:01.607Z,4.10
2023-05-01T08:28:29.059Z,4.03
2023-05-01T08:30:56.440Z,3.40
2023-05-01T08:33:24.181Z,4.00
2023-05-01T08:35:51.605Z,3.17
2023-05-01T08:38:19.020Z,3.43
2023-05-01T08:40:53.499Z,3.60
2023-05-01T08:43:21.410Z,3.30
2023-05-01T08:45:48.801Z,3.47
2023-05-01T08:48:18.415Z,3.30
2023-05-01T08:50:46.609Z,3.70
2023-05-01T08:53:15.808Z,3.40
2023-05-01T08:55:45.234Z,3.70
2023-05-01T08:58:13.984Z,3.30
2023-05-01T09:00:42.342Z,3.90
2023-05-01T09:03:11.319Z,3.13
2023-05-01T09:05:39.212Z,3.50
2023-05-01T09:08:06.769Z,3.00
2023-05-01T09:10:34.678Z,3.50
2023-05-01T09:13:02.684Z,3.47
2023-05-01T09:15:30.518Z,3.63
2023-05-01T09:18:02.329Z,3.40
2023-05-01T09:20:29.302Z,3.27
2023-05-01T09:22:59.719Z,4.10
2023-05-01T09:25:27.140Z,3.77
2023-05-01T09:27:56.448Z,3.27
2023-05-01T09:30:36.624Z,3.00
2023-05-01T09:33:14.029Z,3.30
2023-05-01T09:35:59.509Z,3.80
2023-05-01T09:38:29.256Z,3.57
2023-05-01T09:40:57.852Z,2.90
2023-05-01T09:43:26.675Z,3.67
2023-05-01T09:46:01.223Z,3.17
2023-05-01T09:48:29.039Z,4.00
2023-05-01T09:50:56.407Z,3.30
2023-05-01T09:53:39.679Z,3.10
2023-05-01T09:56:07.135Z,3.43
2023-05-01T09:58:34.501Z,3.50
2023-05-01T10:01:01.910Z,4.07
2023-05-01T10:03:29.998Z,3.50
2023-05-01T10:05:59.122Z,3.53
2023-05-01T10:08:26.729Z,3.77
2023-05-01T10:11:05.238Z,3.23
2023-05-01T10:13:32.568Z,3.70
2023-05-01T10:16:01.582Z,3.47
2023-05-01T10:18:30.419Z,3.47
2023-05-01T10:20:57.796Z,2.90
2023-05-01T10:23:26.210Z,3.83
2023-05-01T10:25:53.977Z,3.70
2023-05-01T10:28:22.318Z,3.47
2023-05-01T10:30:50.107Z,3.10
2023-05-01T10:33:17.715Z,3.50
2023-05-01T10:35:46.695Z,3.60
2023-05-01T10:38:15.760Z,3.47
2023-05-01T10:40:46.993Z,3.20
2023-05-01T10:43:16.661Z,4.03
2023-05-01T10:45:45.591Z,4.10
2023-05-01T10:48:13.321Z,3.90
2023-05-01T10:50:58.988Z,3.90
2023-05-01T10:53:26.353Z,3.23
2023-05-01T10:55:53.752Z,3.83
2023-05-01T10:58:41.079Z,3.13
2023-05-01T11:01:26.419Z,4.00
2023-05-01T11:03:53.762Z,3.60
2023-05-01T11:06:21.246Z,3.50
2023-05-01T11:08:48.783Z,3.60
2023-05-01T11:11:23.445Z,3.20
2023-05-01T11:14:00.624Z,3.63
2023-05-01T11:16:43.150Z,3.70
2023-05-01T11:19:12.041Z,3.43
2023-05-01T11:21:41.672Z,3.70
2023-05-01T11:24:09.782Z,4.07
2023-05-01T11:26:39.586Z,4.43
2023-05-01T11:29:07.444Z,4.20
2023-05-01T11:31:35.136Z,3.70
2023-05-01T11:34:02.896Z,4.10
2023-05-01T11:36:31.829Z,4.50
2023-05-01T11:38:59.881Z,4.30
2023-05-01T11:41:27.554Z,4.00
2023-05-01T11:43:56.251Z,4.80
2023-05-01T11:46:26.911Z,4.10
2023-05-01T11:48:55.939Z,3.90
2023-05-01T11:51:24.667Z,4.90
2023-05-01T11:54:03.002Z,4.03
2023-05-01T11:56:33.794Z,4.40
2023-05-01T11:59:03.401Z,4.43
2023-05-01T12:01:32.315Z,3.87
2023-05-01T12:03:59.778Z,4.30
2023-05-01T12:06:28.727Z,4.77
2023-05-01T12:08:56.117Z,4.20
2023-05-01T12:11:23.981Z,4.33
2023-05-01T12:13:51.397Z,4.20
2023-05-01T12:16:18.883Z,4.47
2023-05-01T12:18:46.805Z,4.40
2023-05-01T12:21:18.966Z,4.87
2023-05-01T12:23:46.417Z,3.97
2023-05-01T12:26:17.620Z,4.50
2023-05-01T12:28:55.341Z,4.63
2023-05-01T12:31:23.040Z,4.17
2023-05-01T12:33:57.235Z,4.20
2023-05-01T12:36:25.253Z,4.67
2023-05-01T12:38:57.767Z,3.67
2023-05-01T12:41:38.528Z,3.73
2023-05-01T12:44:24.033Z,4.53
2023-05-01T12:46:59.563Z,4.50
2023-05-01T12:49:27.570Z,4.63
2023-05-01T12:51:55.708Z,4.60
2023-05-01T12:54:23.970Z,4.20
2023-05-01T12:56:53.193Z,4.37
2023-05-01T12:59:22.879Z,4.07
2023-05-01T13:02:03.478Z,3.97
2023-05-01T13:04:31.087Z,3.80
2023-05-01T13:06:58.830Z,4.47
2023-05-01T13:09:33.104Z,3.77
2023-05-01T13:12:02.895Z,3.77
2023-05-01T13:14:30.791Z,4.37
2023-05-01T13:16:58.172Z,4.43
2023-05-01T13:19:29.082Z,3.90
2023-05-01T13:21:58.027Z,4.63
2023-05-01T13:24:26.978Z,4.03
2023-05-01T13:27:01.873Z,4.30
2023-05-01T13:29:30.299Z,3.87
2023-05-01T13:31:57.774Z,3.77
2023-05-01T13:34:27.474Z,4.17
2023-05-01T13:36:55.802Z,9.00
2023-05-01T13:39:23.754Z,6.30
2023-05-01T13:41:51.604Z,4.53
2023-05-01T13:44:19.753Z,4.63
2023-05-01T13:46:47.800Z,4.70
2023-05-01T13:49:15.658Z,3.60
2023-05-01T13:51:44.299Z,4.20
2023-05-01T13:54:12.310Z,3.67
2023-05-01T13:56:40.304Z,4.07
2023-05-01T13:59:08.790Z,4.10
2023-05-01T14:01:44.298Z,3.93
2023-05-01T14:04:13.156Z,3.73
2023-05-01T14:06:43.983Z,4.10
2023-05-01T14:09:11.535Z,4.00
2023-05-01T14:11:46.480Z,3.90
2023-05-01T14:14:17.310Z,3.37
2023-05-01T14:16:48.618Z,3.60
2023-05-01T14:19:18.519Z,3.97
2023-05-01T14:21:46.653Z,3.73
2023-05-01T14:24:17.577Z,3.40
2023-05-01T14:26:46.105Z,4.00
2023-05-01T14:29:23.856Z,4.63
2023-05-01T14:31:52.350Z,4.07
2023-05-01T14:34:20.899Z,3.80
2023-05-01T14:36:48.196Z,4.20
2023-05-01T14:39:15.949Z,3.63
2023-05-01T14:41:43.376Z,4.10
2023-05-01T14:44:14.651Z,3.77
2023-05-01T14:46:47.000Z,4.37
2023-05-01T14:49:16.048Z,3.73
2023-05-01T14:51:43.437Z,3.90
2023-05-01T14:54:11.369Z,3.73
2023-05-01T14:56:38.763Z,4.07
2023-05-01T14:59:06.134Z,4.07
2023-05-01T15:01:33.566Z,3.97
2023-05-01T15:04:03.469Z,4.80
2023-05-01T15:06:30.026Z,4.80
2023-05-01T15:08:57.425Z,4.33
2023-05-01T15:11:24.746Z,4.43
2023-05-01T15:13:52.498Z,4.13
2023-05-01T15:16:19.900Z,4.20
2023-05-01T15:18:47.247Z,4.10
2023-05-01T15:21:14.629Z,4.07
2023-05-01T15:23:43.643Z,3.87
2023-05-01T15:26:11.113Z,3.80
2023-05-01T15:28:38.568Z,3.47
2023-05-01T15:31:06.813Z,3.80
2023-05-01T15:33:34.237Z,3.70
2023-05-01T15:36:01.775Z,3.60
2023-05-01T15:38:30.005Z,3.77
2023-05-01T15:40:57.328Z,3.80
2023-05-01T15:43:24.706Z,3.80
2023-05-01T15:45:52.510Z,4.00
2023-05-01T15:48:20.201Z,3.83
2023-05-01T15:50:48.950Z,3.53
2023-05-01T15:53:16.846Z,3.77
2023-05-01T15:55:44.291Z,3.97
2023-05-01T15:58:11.644Z,3.50
2023-05-01T16:00:39.565Z,3.63
2023-05-01T16:03:08.422Z,4.23
2023-05-01T16:05:37.210Z,4.40
2023-05-01T16:08:06.008Z,3.70
2023-05-01T16:10:37.113Z,4.40
2023-05-01T16:13:06.024Z,3.93
2023-05-01T16:15:33.766Z,4.10
2023-05-01T16:18:03.839Z,4.00
2023-05-01T16:20:32.794Z,3.80
2023-05-01T16:23:00.308Z,3.30
2023-05-01T16:25:27.670Z,3.43
2023-05-01T16:27:54.981Z,3.60
2023-05-01T16:30:23.991Z,3.90
2023-05-01T16:32:51.494Z,3.93
2023-05-01T16:35:19.238Z,3.00
2023-05-01T16:37:46.659Z,3.33
2023-05-01T16:40:17.942Z,2.93
2023-05-01T16:42:53.102Z,2.83
2023-05-01T16:45:21.290Z,3.40
2023-05-01T16:47:48.740Z,3.50
2023-05-01T16:50:16.921Z,3.57
2023-05-01T16:52:44.365Z,3.40
2023-05-01T16:55:11.739Z,2.90
2023-05-01T16:57:39.110Z,3.17
2023-05-01T17:00:11.396Z,3.43
2023-05-01T17:02:39.458Z,2.97
2023-05-01T17:05:06.962Z,3.13
2023-05-01T17:07:34.618Z,2.90
2023-05-01T17:10:02.168Z,3.30
2023-05-01T17:12:29.779Z,3.70
2023-05-01T17:14:57.140Z,3.67
2023-05-01T17:17:24.845Z,3.73
2023-05-01T17:19:52.679Z,3.80
2023-05-01T17:22:20.310Z,3.93
2023-05-01T17:24:47.692Z,4.00
2023-05-01T17:27:15.453Z,3.20
2023-05-01T17:29:43.561Z,3.60
2023-05-01T17:32:10.964Z,3.30
2023-05-01T17:34:38.302Z,2.80
2023-05-01T17:37:06.180Z,3.27
2023-05-01T17:39:33.620Z,3.47
2023-05-01T17:42:02.176Z,3.47
2023-05-01T17:44:29.554Z,3.30
2023-05-01T17:46:56.934Z,3.27
2023-05-01T17:49:24.288Z,2.90
2023-05-01T17:51:51.669Z,2.90
2023-05-01T17:54:19.306Z,2.70
2023-05-01T17:56:47.037Z,3.60
2023-05-01T17:59:14.436Z,2.90
2023-05-01T18:01:41.929Z,2.87
2023-05-01T18:04:09.319Z,3.00
2023-05-01T18:06:37.420Z,3.47
2023-05-01T18:09:04.777Z,2.73
2023-05-01T18:11:32.162Z,2.60
2023-05-01T18:13:59.455Z,2.70
2023-05-01T18:16:26.876Z,2.77
2023-05-01T18:18:54.297Z,2.63
2023-05-01T18:21:21.613Z,3.00
2023-05-01T18:23:49.029Z,2.80
2023-05-01T18:26:16.456Z,2.60
2023-05-01T18:28:43.835Z,3.03
2023-05-01T18:31:11.297Z,3.03
2023-05-01T18:33:38.791Z,2.83
2023-05-01T18:36:06.304Z,2.90
2023-05-01T18:38:33.669Z,3.37
2023-05-01T18:41:01.047Z,2.80
2023-05-01T18:43:28.420Z,3.40
2023-05-01T18:45:55.805Z,2.83
2023-05-01T18:48:23.107Z,2.97
2023-05-01T18:51:06.705Z,3.23
2023-05-01T18:53:19.545Z,3.50
2023-05-01T18:55:47.419Z,3.20
2023-05-01T18:58:14.860Z,3.03
2023-05-01T19:00:42.267Z,2.93
2023-05-01T19:03:11.372Z,3.40
2023-05-01T19:05:40.567Z,3.17
2023-05-01T19:08:09.272Z,3.60
2023-05-01T19:10:38.345Z,3.17
2023-05-01T19:13:08.867Z,3.00
2023-05-01T19:15:36.525Z,3.20
2023-05-01T19:18:04.887Z,3.37
2023-05-01T19:20:32.237Z,3.43
2023-05-01T19:22:59.601Z,3.17
2023-05-01T19:25:27.055Z,3.53
2023-05-01T19:27:54.514Z,3.20
2023-05-01T19:30:21.893Z,3.20
2023-05-01T19:32:49.394Z,3.40
2023-05-01T19:35:16.738Z,3.40
2023-05-01T19:37:44.108Z,3.73
2023-05-01T19:40:11.851Z,3.47
2023-05-01T19:42:39.222Z,4.00
2023-05-01T19:45:07.113Z,3.67
2023-05-01T19:47:34.485Z,4.40
2023-05-01T19:50:02.170Z,4.33
2023-05-01T19:52:30.113Z,4.23
2023-05-01T19:54:57.937Z,4.03
2023-05-01T19:57:25.318Z,3.80
2023-05-01T19:59:54.341Z,4.43
2023-05-01T20:02:22.405Z,4.83
2023-05-01T20:04:49.923Z,4.20
2023-05-01T20:07:18.491Z,4.43
2023-05-01T20:09:46.152Z,4.27
2023-05-01T20:12:13.595Z,4.77
2023-05-01T20:14:40.914Z,3.87
2023-05-01T20:17:09.151Z,4.40
2023-05-01T20:19:39.341Z,4.47
2023-05-01T20:22:06.988Z,4.27
2023-05-01T20:24:34.411Z,4.00
2023-05-01T20:27:01.720Z,4.40
2023-05-01T20:29:29.099Z,3.80
2023-05-01T20:31:56.492Z,4.03
2023-05-01T20:34:23.870Z,4.37
2023-05-01T20:36:51.267Z,4.50
2023-05-01T20:39:18.651Z,4.60
2023-05-01T20:41:46.045Z,4.70
2023-05-01T20:44:13.418Z,4.77
2023-05-01T20:46:40.982Z,4.23
2023-05-01T20:49:09.867Z,4.47
2023-05-01T20:51:38.109Z,4.73
2023-05-01T20:54:06.031Z,4.67
2023-05-01T20:56:33.391Z,4.20
2023-05-01T20:59:01.046Z,4.43
2023-05-01T21:01:30.632Z,4.90
2023-05-01T21:03:59.332Z,5.03
2023-05-01T21:06:29.855Z,4.87
2023-05-01T21:08:58.810Z,4.60
2023-05-01T21:11:26.141Z,5.13
2023-05-01T21:13:53.531Z,5.00
2023-05-01T21:16:20.932Z,5.10
2023-05-01T21:18:48.950Z,5.33
2023-05-01T21:21:16.353Z,5.33
2023-05-01T21:23:45.249Z,5.30
2023-05-01T21:26:14.058Z,5.00
2023-05-01T21:28:43.257Z,5.10
2023-05-01T21:31:14.001Z,4.77
2023-05-01T21:33:42.891Z,4.57
2023-05-01T21:36:10.831Z,4.90
2023-05-01T21:38:39.292Z,4.90
2023-05-01T21:41:06.675Z,4.47
2023-05-01T21:43:35.028Z,4.20
2023-05-01T21:46:02.501Z,4.20
2023-05-01T21:48:31.529Z,4.53
2023-05-01T21:51:00.340Z,4.97
2023-05-01T21:53:29.645Z,5.00
2023-05-01T21:55:57.060Z,4.87
2023-05-01T21:58:24.890Z,4.53
2023-05-01T22:00:52.338Z,4.80
2023-05-01T22:03:20.025Z,5.10
2023-05-01T22:05:47.571Z,4.57
2023-05-01T22:08:14.911Z,5.17
2023-05-01T22:10:42.829Z,4.77
2023-05-01T22:13:11.262Z,5.30
2023-05-01T22:15:38.656Z,5.00
2023-05-01T22:18:06.301Z,5.40
2023-05-01T22:20:33.766Z,5.53
2023-05-01T22:23:01.435Z,5.67
2023-05-01T22:25:28.884Z,5.53
2023-05-01T22:27:56.241Z,5.10
2023-05-01T22:30:23.590Z,5.30
2023-05-01T22:32:50.987Z,4.93
2023-05-01T22:35:18.347Z,4.70
2023-05-01T22:37:45.705Z,4.53
2023-05-01T22:40:13.057Z,4.80
2023-05-01T22:42:40.505Z,4.63
2023-05-01T22:45:09.223Z,5.90
2023-05-01T22:47:36.618Z,4.87
2023-05-01T22:50:04.104Z,5.17
2023-05-01T22:52:31.894Z,5.33
2023-05-01T22:54:59.296Z,4.43
2023-05-01T22:57:26.655Z,5.80
2023-05-01T22:59:54.120Z,5.53
2023-05-01T23:02:21.636Z,5.33
2023-05-01T23:04:49.261Z,6.17
2023-05-01T23:07:16.630Z,6.13
2023-05-01T23:09:44.485Z,6.47
2023-05-01T23:12:13.867Z,6.30
2023-05-01T23:14:42.431Z,5.73
2023-05-01T23:17:10.067Z,6.33
2023-05-01T23:19:37.815Z,6.17
2023-05-01T23:22:09.396Z,7.03
2023-05-01T23:24:49.604Z,7.60
2023-05-01T23:27:18.101Z,7.63
2023-05-01T23:29:49.648Z,7.57
2023-05-01T23:32:18.556Z,8.17
2023-05-01T23:34:45.919Z,8.07
2023-05-01T23:37:13.615Z,8.90
2023-05-01T23:39:40.985Z,8.50
2023-05-01T23:42:08.370Z,8.40
2023-05-01T23:44:35.667Z,8.70
2023-05-01T23:47:03.197Z,9.27
2023-05-01T23:49:30.667Z,8.73
2023-05-01T23:51:58.125Z,9.23
2023-05-01T23:54:25.774Z,9.50
2023-05-01T23:56:53.424Z,9.17
2023-05-01T23:59:20.795Z,9.83
